createdAt,value
2022-10-22T00:00:20.566Z,93.90
2022-10-22T00:04:02.711Z,93.80
2022-10-22T00:07:44.678Z,93.70
2022-10-22T00:11:26.676Z,93.60
2022-10-22T00:15:08.908Z,93.60
2022-10-22T00:18:51.722Z,93.70
2022-10-22T00:22:34.265Z,93.90
2022-10-22T00:26:16.279Z,93.80
2022-10-22T00:29:58.176Z,93.80
2022-10-22T00:33:40.352Z,93.80
2022-10-22T00:37:22.236Z,93.80
2022-10-22T00:41:04.298Z,94.00
2022-10-22T00:45:25.241Z,94.00
2022-10-22T00:49:07.356Z,93.80
2022-10-22T00:52:50.482Z,93.70
2022-10-22T00:56:33.240Z,93.60
2022-10-22T01:00:15.697Z,93.60
2022-10-22T01:03:58.389Z,93.80
2022-10-22T01:07:48.181Z,93.90
2022-10-22T01:12:00.291Z,94.00
2022-10-22T01:16:00.218Z,93.90
2022-10-22T01:20:09.664Z,94.10
2022-10-22T01:24:15.564Z,94.00
2022-10-22T01:28:42.784Z,93.90
2022-10-22T01:32:26.641Z,93.90
2022-10-22T01:36:09.668Z,94.00
2022-10-22T01:39:53.245Z,94.00
2022-10-22T01:43:35.161Z,93.80
2022-10-22T01:47:32.763Z,93.80
2022-10-22T01:51:39.420Z,93.60
2022-10-22T01:55:36.036Z,93.60
2022-10-22T01:59:36.487Z,93.50
2022-10-22T02:03:26.812Z,93.30
2022-10-22T02:07:13.053Z,93.20
2022-10-22T02:10:55.203Z,93.00
2022-10-22T02:14:41.334Z,92.80
2022-10-22T02:18:25.249Z,92.80
2022-10-22T02:22:07.667Z,92.50
2022-10-22T02:25:56.391Z,92.50
2022-10-22T02:29:43.719Z,92.40
2022-10-22T02:33:33.358Z,92.30
2022-10-22T02:37:16.962Z,92.20
2022-10-22T02:40:59.338Z,92.10
2022-10-22T02:44:41.339Z,92.10
2022-10-22T02:48:23.239Z,92.10
2022-10-22T02:52:05.360Z,92.10
2022-10-22T02:55:47.267Z,92.10
2022-10-22T02:59:29.423Z,92.00
2022-10-22T03:03:11.423Z,91.90
2022-10-22T03:06:53.628Z,92.00
2022-10-22T03:10:35.599Z,91.90
2022-10-22T03:14:17.621Z,91.90
2022-10-22T03:17:59.550Z,91.80
2022-10-22T03:21:46.421Z,91.80
2022-10-22T03:25:31.192Z,91.70
2022-10-22T03:29:15.702Z,91.70
2022-10-22T03:32:57.716Z,91.60
2022-10-22T03:36:41.220Z,91.50
2022-10-22T03:40:23.379Z,91.60
2022-10-22T03:44:06.156Z,91.50
2022-10-22T03:47:48.076Z,91.50
2022-10-22T03:51:30.394Z,91.50
2022-10-22T03:55:12.296Z,91.60
2022-10-22T03:58:57.488Z,91.60
2022-10-22T04:02:39.600Z,91.50
2022-10-22T04:06:21.892Z,91.40
2022-10-22T04:10:04.735Z,91.30
2022-10-22T04:13:46.707Z,91.20
2022-10-22T04:17:35.064Z,91.10
2022-10-22T04:21:19.187Z,91.00
2022-10-22T04:25:01.236Z,91.10
2022-10-22T04:28:43.823Z,91.00
2022-10-22T04:32:27.212Z,91.10
2022-10-22T04:36:19.361Z,91.20
2022-10-22T04:40:01.439Z,91.30
2022-10-22T04:43:43.510Z,91.50
2022-10-22T04:47:25.416Z,91.70
2022-10-22T04:51:09.452Z,91.80
2022-10-22T04:54:51.374Z,92.00
2022-10-22T04:58:33.448Z,92.00
2022-10-22T05:02:15.551Z,92.00
2022-10-22T05:06:01.360Z,92.00
2022-10-22T05:09:43.442Z,92.00
2022-10-22T05:13:25.363Z,92.00
2022-10-22T05:17:07.657Z,92.00
2022-10-22T05:20:49.589Z,91.90
2022-10-22T05:24:33.240Z,91.90
2022-10-22T05:28:15.148Z,91.90
2022-10-22T05:31:57.140Z,92.00
2022-10-22T05:35:38.991Z,92.10
2022-10-22T05:39:20.955Z,92.20
2022-10-22T05:43:02.890Z,92.20
2022-10-22T05:46:45.125Z,92.10
2022-10-22T05:50:27.019Z,92.10
2022-10-22T05:54:14.497Z,92.00
2022-10-22T05:57:56.394Z,91.90
2022-10-22T06:01:39.623Z,91.80
2022-10-22T06:05:21.808Z,91.80
2022-10-22T06:09:13.674Z,91.80
2022-10-22T06:12:55.633Z,91.70
2022-10-22T06:16:37.689Z,91.70
2022-10-22T06:20:19.528Z,91.70
2022-10-22T06:24:03.279Z,91.70
2022-10-22T06:27:49.887Z,91.60
2022-10-22T06:31:37.001Z,91.60
2022-10-22T06:35:19.205Z,91.60
2022-10-22T06:39:01.084Z,91.50
2022-10-22T06:42:43.280Z,91.50
2022-10-22T06:46:26.510Z,91.50
2022-10-22T06:50:08.635Z,91.60
2022-10-22T06:53:50.988Z,91.60
2022-10-22T06:57:33.238Z,91.70
2022-10-22T07:01:17.439Z,91.80
2022-10-22T07:04:59.405Z,91.90
2022-10-22T07:08:42.591Z,92.00
2022-10-22T07:12:27.574Z,92.10
2022-10-22T07:16:12.930Z,92.20
2022-10-22T07:19:54.867Z,92.20
2022-10-22T07:23:37.797Z,92.30
2022-10-22T07:27:23.442Z,92.40
2022-10-22T07:31:07.993Z,92.50
2022-10-22T07:34:50.049Z,92.70
2022-10-22T07:38:36.632Z,92.80
2022-10-22T07:42:20.654Z,93.00
2022-10-22T07:46:13.754Z,93.10
2022-10-22T07:50:02.169Z,93.20
2022-10-22T07:53:59.798Z,93.40
2022-10-22T08:01:39.211Z,93.60
2022-10-22T08:05:30.088Z,93.70
2022-10-22T08:09:12.559Z,93.80
2022-10-22T08:12:55.960Z,94.00
2022-10-22T08:16:40.787Z,94.10
2022-10-22T08:20:24.215Z,94.20
2022-10-22T08:27:49.925Z,94.30
2022-10-22T08:35:14.218Z,94.40
2022-10-22T08:39:01.183Z,94.60
2022-10-22T08:43:00.273Z,94.70
2022-10-22T08:47:17.512Z,94.70
2022-10-22T08:51:02.136Z,94.20
2022-10-22T08:54:50.857Z,94.40
2022-10-22T08:58:38.894Z,94.30
2022-10-22T09:06:32.399Z,93.20
2022-10-22T09:10:14.756Z,93.50
2022-10-22T09:13:58.044Z,93.60
2022-10-22T09:18:18.168Z,93.60
2022-10-22T09:22:08.906Z,92.60
2022-10-22T09:25:56.083Z,92.20
2022-10-22T09:29:38.813Z,91.70
2022-10-22T09:33:36.556Z,91.80
2022-10-22T09:37:27.031Z,91.60
2022-10-22T09:41:09.509Z,91.70
2022-10-22T09:45:02.387Z,90.60
2022-10-22T09:49:20.350Z,88.90
2022-10-22T09:53:14.772Z,88.40
2022-10-22T09:57:08.798Z,88.00
2022-10-22T10:01:00.838Z,87.70
2022-10-22T10:04:48.249Z,88.00
2022-10-22T10:08:37.963Z,88.70
2022-10-22T10:12:53.317Z,89.30
2022-10-22T10:17:13.512Z,87.40
2022-10-22T10:21:03.559Z,87.00
2022-10-22T10:25:13.722Z,87.40
2022-10-22T10:29:08.532Z,84.40
2022-10-22T10:33:28.616Z,85.40
2022-10-22T10:37:23.737Z,84.30
2022-10-22T10:41:29.540Z,85.10
2022-10-22T10:45:35.833Z,85.00
2022-10-22T10:49:24.576Z,84.90
2022-10-22T10:53:44.198Z,86.80
2022-10-22T10:57:38.086Z,85.10
2022-10-22T11:01:59.022Z,88.00
2022-10-22T11:06:00.601Z,88.20
2022-10-22T11:10:07.661Z,85.20
2022-10-22T11:14:18.744Z,81.10
2022-10-22T11:18:20.228Z,79.00
2022-10-22T11:22:16.198Z,81.30
2022-10-22T11:25:59.982Z,82.70
2022-10-22T11:29:47.565Z,84.00
2022-10-22T11:33:44.186Z,85.00
2022-10-22T11:37:35.305Z,84.30
2022-10-22T11:41:22.302Z,85.50
2022-10-22T11:45:29.992Z,85.50
2022-10-22T11:49:14.819Z,82.40
2022-10-22T11:53:04.359Z,84.50
2022-10-22T11:56:53.251Z,83.30
2022-10-22T12:00:46.440Z,82.80
2022-10-22T12:04:42.068Z,82.00
2022-10-22T12:08:26.493Z,83.30
2022-10-22T12:12:16.182Z,85.00
2022-10-22T12:16:02.065Z,84.20
2022-10-22T12:19:47.147Z,84.90
2022-10-22T12:23:41.532Z,85.50
2022-10-22T12:27:33.229Z,86.10
2022-10-22T12:31:24.241Z,85.00
2022-10-22T12:35:17.139Z,84.90
2022-10-22T12:39:12.812Z,84.60
2022-10-22T12:42:56.614Z,85.30
2022-10-22T12:46:38.770Z,84.90
2022-10-22T12:50:29.448Z,85.00
2022-10-22T12:54:24.269Z,85.30
2022-10-22T12:58:19.356Z,85.00
2022-10-22T13:02:06.748Z,85.70
2022-10-22T13:05:51.125Z,86.10
2022-10-22T13:09:54.255Z,86.90
2022-10-22T13:13:43.921Z,86.60
2022-10-22T13:21:52.063Z,85.90
2022-10-22T13:25:37.737Z,86.20
2022-10-22T13:29:22.784Z,87.40
2022-10-22T13:33:06.486Z,87.60
2022-10-22T13:36:57.077Z,87.30
2022-10-22T13:40:43.303Z,87.50
2022-10-22T13:44:26.861Z,87.50
2022-10-22T13:48:22.300Z,87.70
2022-10-22T13:52:17.316Z,86.80
2022-10-22T13:55:59.453Z,87.30
2022-10-22T13:59:47.324Z,86.80
2022-10-22T14:03:32.406Z,86.90
2022-10-22T14:07:18.284Z,87.00
2022-10-22T14:11:00.362Z,86.80
2022-10-22T14:14:42.742Z,87.10
2022-10-22T14:18:31.591Z,87.00
2022-10-22T14:22:26.477Z,87.20
2022-10-22T14:26:23.356Z,86.40
2022-10-22T14:30:05.980Z,86.30
2022-10-22T14:33:49.345Z,87.40
2022-10-22T14:37:31.440Z,87.30
2022-10-22T14:41:24.795Z,87.40
2022-10-22T14:45:07.646Z,86.80
2022-10-22T14:48:49.829Z,87.30
2022-10-22T14:52:31.727Z,87.30
2022-10-22T14:56:17.842Z,87.00
2022-10-22T14:59:59.843Z,87.00
2022-10-22T15:03:42.030Z,87.30
2022-10-22T15:08:01.424Z,87.50
2022-10-22T15:11:43.734Z,86.40
2022-10-22T15:15:29.564Z,87.40
2022-10-22T15:19:17.284Z,87.60
2022-10-22T15:22:59.678Z,87.60
2022-10-22T15:26:41.876Z,87.70
2022-10-22T15:30:23.722Z,87.80
2022-10-22T15:34:06.606Z,87.60
2022-10-22T15:37:51.729Z,87.80
2022-10-22T15:41:33.845Z,87.70
2022-10-22T15:45:16.084Z,87.80
2022-10-22T15:48:58.304Z,87.90
2022-10-22T15:52:40.211Z,87.80
2022-10-22T15:56:24.033Z,87.90
2022-10-22T16:00:08.262Z,88.00
2022-10-22T16:04:02.938Z,88.20
2022-10-22T16:07:45.387Z,88.30
2022-10-22T16:11:28.874Z,88.30
2022-10-22T16:15:19.830Z,88.40
2022-10-22T16:19:04.501Z,88.30
2022-10-22T16:22:50.137Z,88.40
2022-10-22T16:26:33.301Z,88.40
2022-10-22T16:30:19.618Z,88.60
2022-10-22T16:34:01.598Z,88.60
2022-10-22T16:37:43.961Z,88.70
2022-10-22T16:41:36.192Z,88.80
2022-10-22T16:45:21.715Z,88.80
2022-10-22T16:49:04.500Z,88.90
2022-10-22T16:52:50.956Z,89.00
2022-10-22T16:56:36.357Z,89.10
2022-10-22T17:00:20.672Z,89.20
2022-10-22T17:04:04.673Z,89.20
2022-10-22T17:07:47.478Z,89.20
2022-10-22T17:11:36.466Z,89.30
2022-10-22T17:15:21.341Z,89.30
2022-10-22T17:19:04.906Z,89.40
2022-10-22T17:22:50.340Z,89.40
2022-10-22T17:26:34.773Z,89.30
2022-10-22T17:30:26.463Z,89.40
2022-10-22T17:34:16.864Z,89.40
2022-10-22T17:38:00.423Z,89.60
2022-10-22T17:41:42.488Z,89.90
2022-10-22T17:45:33.671Z,90.10
2022-10-22T17:49:26.103Z,90.10
2022-10-22T17:53:08.292Z,90.60
2022-10-22T17:56:52.814Z,90.40
2022-10-22T18:00:36.213Z,90.50
2022-10-22T18:04:19.786Z,90.60
2022-10-22T18:08:07.693Z,90.70
2022-10-22T18:11:53.723Z,90.80
2022-10-22T18:15:40.789Z,90.90
2022-10-22T18:19:25.024Z,90.90
2022-10-22T18:23:13.853Z,91.00
2022-10-22T18:26:58.537Z,91.00
2022-10-22T18:30:43.409Z,91.10
2022-10-22T18:34:25.631Z,91.10
2022-10-22T18:38:12.934Z,91.20
2022-10-22T18:41:54.944Z,91.30
2022-10-22T18:45:48.833Z,91.20
2022-10-22T18:49:31.981Z,91.30
2022-10-22T18:53:15.453Z,91.40
2022-10-22T18:57:02.835Z,91.40
2022-10-22T19:00:53.332Z,91.50
2022-10-22T19:04:38.422Z,91.50
2022-10-22T19:08:21.624Z,91.50
2022-10-22T19:12:04.296Z,91.50
2022-10-22T19:15:47.832Z,91.60
2022-10-22T19:19:29.956Z,91.70
2022-10-22T19:23:12.093Z,91.70
2022-10-22T19:26:54.487Z,91.70
2022-10-22T19:30:40.930Z,91.70
2022-10-22T19:34:24.429Z,91.70
2022-10-22T19:38:07.549Z,91.80
2022-10-22T19:41:50.385Z,91.80
2022-10-22T19:45:35.411Z,91.90
2022-10-22T19:49:22.963Z,91.90
2022-10-22T20:00:53.123Z,91.90
2022-10-22T20:04:36.415Z,91.90
2022-10-22T20:08:18.544Z,92.00
2022-10-22T20:12:05.841Z,92.00
2022-10-22T20:15:49.917Z,92.10
2022-10-22T20:19:36.863Z,92.10
2022-10-22T20:23:21.295Z,92.10
2022-10-22T20:27:03.751Z,92.10
2022-10-22T20:30:48.998Z,92.20
2022-10-22T20:34:31.416Z,92.20
2022-10-22T20:38:17.307Z,92.30
2022-10-22T20:41:59.272Z,92.30
2022-10-22T20:45:41.669Z,92.30
2022-10-22T20:49:23.635Z,92.30
2022-10-22T20:53:06.805Z,92.30
2022-10-22T20:56:48.871Z,92.30
2022-10-22T21:00:36.113Z,92.30
2022-10-22T21:04:24.983Z,92.30
2022-10-22T21:08:08.470Z,92.30
2022-10-22T21:11:57.224Z,92.30
2022-10-22T21:15:41.848Z,92.40
2022-10-22T21:19:24.977Z,92.40
2022-10-22T21:23:18.466Z,92.40
2022-10-22T21:27:00.428Z,92.30
2022-10-22T21:30:50.633Z,92.20
2022-10-22T21:34:39.055Z,92.20
2022-10-22T21:38:25.634Z,92.30
2022-10-22T21:42:07.656Z,92.30
2022-10-22T21:45:51.563Z,92.20
2022-10-22T21:49:35.093Z,92.10
2022-10-22T21:53:17.219Z,92.10
2022-10-22T21:57:01.203Z,92.00
2022-10-22T22:00:43.226Z,92.00
2022-10-22T22:04:25.763Z,92.00
2022-10-22T22:08:09.411Z,92.00
2022-10-22T22:11:57.370Z,92.10
2022-10-22T22:15:42.048Z,92.20
2022-10-22T22:19:44.410Z,92.20
2022-10-22T22:23:27.075Z,92.10
2022-10-22T22:27:17.969Z,92.10
2022-10-22T22:31:00.568Z,92.20
2022-10-22T22:34:52.730Z,92.20
2022-10-22T22:38:34.733Z,92.30
2022-10-22T22:42:16.769Z,92.30
2022-10-22T22:46:42.205Z,92.30
2022-10-22T22:50:25.601Z,92.30
2022-10-22T22:54:07.585Z,92.20
2022-10-22T22:57:57.916Z,92.30
2022-10-22T23:01:40.788Z,92.40
2022-10-22T23:05:31.146Z,92.50
2022-10-22T23:09:16.827Z,92.40
2022-10-22T23:13:02.110Z,92.40
2022-10-22T23:16:54.912Z,92.40
2022-10-22T23:20:45.337Z,92.40
2022-10-22T23:24:29.579Z,92.30
2022-10-22T23:28:11.479Z,92.30
2022-10-22T23:31:55.121Z,92.40
2022-10-22T23:35:41.022Z,92.40
2022-10-22T23:39:48.974Z,92.40
2022-10-22T23:43:33.838Z,92.40
2022-10-22T23:47:25.794Z,92.40
2022-10-22T23:51:10.911Z,92.40
2022-10-22T23:54:54.456Z,92.40
2022-10-22T23:58:40.550Z,92.40
